AZU9000 SBGR-SBKP
Flight info
| Callsign | AZU9000 |
|---|---|
| Flight time | 0h 26m |
| Altitude | 18000 |
| Route | VUMEV DCT ENTIT |
| Aircraft | A359/H-SDE2E3FGHIJ1J4J5P2RWYZ/LB1D1 |
Departure
| Time | 2026-05-05 20:55 |
|---|---|
| Airport | São Paulo/Guarulhos–Governor André Franco Montoro International Airport (SBGR) |
Arrival
| Time | 2026-05-05 21:22 |
|---|---|
| Airport | Viracopos International Airport (SBKP) |
| Time | Latitude | Longitude | Altitude | Speed | Heading |
|---|---|---|---|---|---|
| 2026-05-05 20:32 | -23.42610 | -46.47078 | 2475 ft | 0 kts | 78° |
| 2026-05-05 20:47 | -23.42612 | -46.47093 | 2477 ft | 2 kts | 79° |
| 2026-05-05 20:47 | -23.42615 | -46.47111 | 2474 ft | 2 kts | 81° |
| 2026-05-05 20:48 | -23.42617 | -46.47129 | 2474 ft | 2 kts | 85° |
| 2026-05-05 20:48 | -23.42618 | -46.47147 | 2474 ft | 2 kts | 100° |
| 2026-05-05 20:48 | -23.42610 | -46.47162 | 2475 ft | 2 kts | 157° |
| 2026-05-05 20:48 | -23.42594 | -46.47167 | 2476 ft | 2 kts | 163° |
| 2026-05-05 20:49 | -23.42578 | -46.47172 | 2475 ft | 2 kts | 164° |
| 2026-05-05 20:49 | -23.42563 | -46.47177 | 2475 ft | 2 kts | 164° |
| 2026-05-05 20:49 | -23.42558 | -46.47178 | 2475 ft | 0 kts | 164° |
| 2026-05-05 20:51 | -23.42569 | -46.47175 | 2475 ft | 8 kts | 165° |
| 2026-05-05 20:51 | -23.42666 | -46.47149 | 2477 ft | 17 kts | 167° |
| 2026-05-05 20:51 | -23.42766 | -46.47139 | 2477 ft | 18 kts | 174° |
| 2026-05-05 20:52 | -23.42857 | -46.47175 | 2475 ft | 15 kts | 250° |
| 2026-05-05 20:52 | -23.42889 | -46.47298 | 2478 ft | 19 kts | 254° |
| 2026-05-05 20:52 | -23.42928 | -46.47443 | 2476 ft | 22 kts | 254° |
| 2026-05-05 20:52 | -23.42973 | -46.47611 | 2477 ft | 24 kts | 253° |
| 2026-05-05 20:53 | -23.43025 | -46.47798 | 2478 ft | 27 kts | 253° |
| 2026-05-05 20:53 | -23.43082 | -46.48008 | 2475 ft | 30 kts | 253° |
| 2026-05-05 20:53 | -23.43141 | -46.48229 | 2476 ft | 32 kts | 254° |
| 2026-05-05 20:53 | -23.43172 | -46.48343 | 2479 ft | 4 kts | 251° |
| 2026-05-05 20:54 | -23.43239 | -46.48379 | 2475 ft | 19 kts | 173° |
| 2026-05-05 20:54 | -23.43385 | -46.48344 | 2476 ft | 23 kts | 166° |
| 2026-05-05 20:54 | -23.43424 | -46.48309 | 2476 ft | 0 kts | 95° |
| 2026-05-05 20:54 | -23.43415 | -46.48277 | 2476 ft | 12 kts | 75° |
| 2026-05-05 20:55 | -23.43332 | -46.47967 | 2477 ft | 83 kts | 73° |
| 2026-05-05 20:55 | -23.43095 | -46.47102 | 2476 ft | 153 kts | 74° |
| 2026-05-05 20:55 | -23.42782 | -46.45938 | 3254 ft | 154 kts | 73° |
| 2026-05-05 20:55 | -23.42482 | -46.44767 | 3910 ft | 170 kts | 77° |
| 2026-05-05 20:56 | -23.42154 | -46.43481 | 4344 ft | 184 kts | 74° |
| 2026-05-05 20:56 | -23.41729 | -46.42099 | 4588 ft | 205 kts | 72° |
| 2026-05-05 20:56 | -23.41249 | -46.40552 | 4885 ft | 224 kts | 73° |
| 2026-05-05 20:56 | -23.40740 | -46.38854 | 5174 ft | 248 kts | 73° |
| 2026-05-05 20:57 | -23.40189 | -46.37000 | 5602 ft | 263 kts | 72° |
| 2026-05-05 20:57 | -23.39392 | -46.35177 | 6257 ft | 270 kts | 60° |
| 2026-05-05 20:57 | -23.38390 | -46.33429 | 6948 ft | 274 kts | 58° |
| 2026-05-05 20:57 | -23.37351 | -46.31671 | 7632 ft | 277 kts | 58° |
| 2026-05-05 20:58 | -23.36310 | -46.29899 | 8304 ft | 280 kts | 58° |
| 2026-05-05 20:58 | -23.35259 | -46.28096 | 8989 ft | 283 kts | 58° |
| 2026-05-05 20:58 | -23.34201 | -46.26278 | 9648 ft | 286 kts | 58° |
| 2026-05-05 20:58 | -23.33133 | -46.24438 | 10083 ft | 288 kts | 58° |
| 2026-05-05 20:59 | -23.32058 | -46.22586 | 10214 ft | 290 kts | 58° |
| 2026-05-05 20:59 | -23.30986 | -46.20740 | 10215 ft | 291 kts | 58° |
| 2026-05-05 20:59 | -23.29923 | -46.18909 | 10208 ft | 292 kts | 58° |
| 2026-05-05 20:59 | -23.28838 | -46.17040 | 10202 ft | 292 kts | 58° |
| 2026-05-05 21:00 | -23.27751 | -46.15169 | 10204 ft | 292 kts | 58° |
| 2026-05-05 21:00 | -23.26665 | -46.13302 | 10205 ft | 292 kts | 58° |
| 2026-05-05 21:00 | -23.25398 | -46.11571 | 10203 ft | 293 kts | 45° |
| 2026-05-05 21:00 | -23.23721 | -46.10319 | 10204 ft | 295 kts | 24° |
| 2026-05-05 21:01 | -23.21722 | -46.09867 | 10207 ft | 296 kts | 359° |
| 2026-05-05 21:01 | -23.19736 | -46.10399 | 10205 ft | 297 kts | 333° |
| 2026-05-05 21:01 | -23.18161 | -46.11833 | 10206 ft | 298 kts | 307° |
| 2026-05-05 21:01 | -23.17255 | -46.13857 | 10205 ft | 298 kts | 289° |
| 2026-05-05 21:02 | -23.16595 | -46.16000 | 10211 ft | 299 kts | 288° |
| 2026-05-05 21:02 | -23.15935 | -46.18143 | 10213 ft | 300 kts | 289° |
| 2026-05-05 21:02 | -23.15257 | -46.20288 | 10207 ft | 300 kts | 289° |
| 2026-05-05 21:02 | -23.14577 | -46.22404 | 10205 ft | 300 kts | 289° |
| 2026-05-05 21:03 | -23.13883 | -46.24542 | 10207 ft | 300 kts | 289° |
| 2026-05-05 21:03 | -23.13185 | -46.26681 | 10206 ft | 300 kts | 289° |
| 2026-05-05 21:03 | -23.12486 | -46.28819 | 10203 ft | 301 kts | 290° |
| 2026-05-05 21:03 | -23.11783 | -46.30958 | 10209 ft | 301 kts | 290° |
| 2026-05-05 21:04 | -23.11080 | -46.33096 | 10202 ft | 301 kts | 290° |
| 2026-05-05 21:04 | -23.10376 | -46.35237 | 10199 ft | 301 kts | 290° |
| 2026-05-05 21:04 | -23.09909 | -46.36657 | 10206 ft | 301 kts | 290° |
| 2026-05-05 21:04 | -23.09516 | -46.37849 | 10206 ft | 301 kts | 290° |
| 2026-05-05 21:05 | -23.08809 | -46.39998 | 10206 ft | 301 kts | 290° |
| 2026-05-05 21:05 | -23.08104 | -46.42140 | 10200 ft | 301 kts | 290° |
| 2026-05-05 21:05 | -23.07398 | -46.44281 | 10200 ft | 301 kts | 290° |
| 2026-05-05 21:05 | -23.07229 | -46.44793 | 10203 ft | 301 kts | 290° |
| 2026-05-05 21:06 | -23.06736 | -46.46289 | 10198 ft | 301 kts | 290° |
| 2026-05-05 21:06 | -23.06028 | -46.48434 | 10196 ft | 301 kts | 290° |
| 2026-05-05 21:06 | -23.05321 | -46.50575 | 10189 ft | 301 kts | 290° |
| 2026-05-05 21:06 | -23.04611 | -46.52724 | 9939 ft | 301 kts | 290° |
| 2026-05-05 21:07 | -23.03904 | -46.54860 | 9454 ft | 301 kts | 290° |
| 2026-05-05 21:07 | -23.03196 | -46.56999 | 8955 ft | 301 kts | 290° |
| 2026-05-05 21:07 | -23.02490 | -46.59133 | 8476 ft | 299 kts | 290° |
| 2026-05-05 21:07 | -23.01837 | -46.61103 | 8060 ft | 297 kts | 290° |
| 2026-05-05 21:08 | -23.01165 | -46.63133 | 7640 ft | 295 kts | 290° |
| 2026-05-05 21:08 | -23.00471 | -46.65228 | 7200 ft | 294 kts | 289° |
| 2026-05-05 21:08 | -23.00050 | -46.66498 | 6932 ft | 292 kts | 289° |
| 2026-05-05 21:08 | -22.99747 | -46.67410 | 6741 ft | 292 kts | 289° |
| 2026-05-05 21:09 | -22.99064 | -46.69469 | 6347 ft | 288 kts | 289° |
| 2026-05-05 21:09 | -22.98391 | -46.71498 | 6199 ft | 283 kts | 289° |
| 2026-05-05 21:09 | -22.97722 | -46.73514 | 6191 ft | 284 kts | 289° |
| 2026-05-05 21:09 | -22.97051 | -46.75530 | 6185 ft | 284 kts | 289° |
| 2026-05-05 21:10 | -22.96383 | -46.77547 | 6189 ft | 284 kts | 289° |
| 2026-05-05 21:10 | -22.95712 | -46.79563 | 6184 ft | 284 kts | 289° |
| 2026-05-05 21:10 | -22.95042 | -46.81582 | 6188 ft | 284 kts | 289° |
| 2026-05-05 21:10 | -22.94372 | -46.83597 | 6189 ft | 284 kts | 289° |
| 2026-05-05 21:11 | -22.93700 | -46.85615 | 6190 ft | 284 kts | 289° |
| 2026-05-05 21:11 | -22.93262 | -46.86929 | 6191 ft | 284 kts | 289° |
| 2026-05-05 21:11 | -22.92590 | -46.88943 | 6192 ft | 284 kts | 289° |
| 2026-05-05 21:11 | -22.91918 | -46.90958 | 6192 ft | 284 kts | 290° |
| 2026-05-05 21:12 | -22.91244 | -46.92976 | 6194 ft | 284 kts | 289° |
| 2026-05-05 21:12 | -22.90580 | -46.94967 | 6193 ft | 284 kts | 289° |
| 2026-05-05 21:12 | -22.89898 | -46.97008 | 6198 ft | 285 kts | 289° |
| 2026-05-05 21:12 | -22.89231 | -46.99005 | 6202 ft | 285 kts | 289° |
| 2026-05-05 21:13 | -22.88548 | -47.01047 | 6199 ft | 285 kts | 289° |
| 2026-05-05 21:13 | -22.87884 | -47.03035 | 6198 ft | 284 kts | 290° |
| 2026-05-05 21:13 | -22.87210 | -47.05052 | 6200 ft | 284 kts | 290° |
| 2026-05-05 21:13 | -22.86537 | -47.07062 | 6198 ft | 284 kts | 290° |
| 2026-05-05 21:14 | -22.85862 | -47.09079 | 6100 ft | 284 kts | 290° |
| 2026-05-05 21:14 | -22.85190 | -47.11083 | 5994 ft | 282 kts | 290° |
| 2026-05-05 21:14 | -22.84518 | -47.13089 | 5988 ft | 283 kts | 290° |
| 2026-05-05 21:14 | -22.83845 | -47.15097 | 5989 ft | 283 kts | 290° |
| 2026-05-05 21:15 | -22.83172 | -47.17102 | 5991 ft | 283 kts | 290° |
| 2026-05-05 21:15 | -22.82516 | -47.19109 | 5971 ft | 282 kts | 288° |
| 2026-05-05 21:15 | -22.82266 | -47.21212 | 5984 ft | 283 kts | 264° |
| 2026-05-05 21:15 | -22.82932 | -47.23178 | 5971 ft | 279 kts | 233° |
| 2026-05-05 21:16 | -22.84279 | -47.24600 | 5949 ft | 262 kts | 217° |
| 2026-05-05 21:16 | -22.85699 | -47.25773 | 5809 ft | 252 kts | 216° |
| 2026-05-05 21:16 | -22.87055 | -47.26879 | 5669 ft | 242 kts | 216° |
| 2026-05-05 21:16 | -22.88468 | -47.27788 | 5488 ft | 233 kts | 197° |
| 2026-05-05 21:17 | -22.90014 | -47.27783 | 5333 ft | 219 kts | 160° |
| 2026-05-05 21:17 | -22.90868 | -47.27218 | 5242 ft | 209 kts | 137° |
| 2026-05-05 21:17 | -22.91964 | -47.25809 | 5050 ft | 188 kts | 127° |
| 2026-05-05 21:17 | -22.92711 | -47.24725 | 4853 ft | 172 kts | 127° |
| 2026-05-05 21:18 | -22.93404 | -47.23730 | 4675 ft | 158 kts | 127° |
| 2026-05-05 21:18 | -22.94067 | -47.22788 | 4291 ft | 158 kts | 128° |
| 2026-05-05 21:18 | -22.94507 | -47.22157 | 4013 ft | 159 kts | 127° |
| 2026-05-05 21:18 | -22.95187 | -47.21186 | 3600 ft | 159 kts | 130° |
| 2026-05-05 21:19 | -22.95850 | -47.20295 | 3434 ft | 143 kts | 129° |
| 2026-05-05 21:19 | -22.96435 | -47.19475 | 3253 ft | 133 kts | 128° |
| 2026-05-05 21:19 | -22.96987 | -47.18698 | 3089 ft | 129 kts | 129° |
| 2026-05-05 21:19 | -22.97534 | -47.17935 | 2931 ft | 128 kts | 129° |
| 2026-05-05 21:20 | -22.98083 | -47.17165 | 2767 ft | 129 kts | 129° |
| 2026-05-05 21:20 | -22.98631 | -47.16397 | 2587 ft | 129 kts | 128° |
| 2026-05-05 21:20 | -22.99175 | -47.15630 | 2427 ft | 128 kts | 128° |
| 2026-05-05 21:20 | -22.99704 | -47.14894 | 2248 ft | 128 kts | 128° |
| 2026-05-05 21:21 | -23.00261 | -47.14117 | 2168 ft | 118 kts | 128° |
| 2026-05-05 21:21 | -23.00701 | -47.13504 | 2165 ft | 92 kts | 128° |
| 2026-05-05 21:21 | -23.01054 | -47.13010 | 2167 ft | 74 kts | 128° |
| 2026-05-05 21:21 | -23.01346 | -47.12599 | 2164 ft | 63 kts | 127° |
| 2026-05-05 21:22 | -23.01586 | -47.12271 | 2164 ft | 35 kts | 131° |
| 2026-05-05 21:22 | -23.01621 | -47.12248 | 2166 ft | 4 kts | 165° |
| 2026-05-05 21:22 | -23.01697 | -47.12260 | 2169 ft | 17 kts | 206° |
| 2026-05-05 21:22 | -23.01788 | -47.12343 | 2175 ft | 17 kts | 220° |
| 2026-05-05 21:23 | -23.01837 | -47.12418 | 2166 ft | 10 kts | 257° |
| 2026-05-05 21:23 | -23.01871 | -47.12478 | 2164 ft | 4 kts | 251° |
| 2026-05-05 21:23 | -23.01859 | -47.12497 | 2164 ft | 8 kts | 309° |
| 2026-05-05 21:23 | -23.01800 | -47.12572 | 2168 ft | 10 kts | 295° |
| 2026-05-05 21:24 | -23.01805 | -47.12590 | 2166 ft | 1 kts | 223° |
| 2026-05-05 21:24 | -23.01814 | -47.12591 | 2168 ft | 4 kts | 186° |
| 2026-05-05 21:24 | -23.01825 | -47.12584 | 2169 ft | 6 kts | 140° |
| 2026-05-05 21:24 | -23.01844 | -47.12546 | 2164 ft | 0 kts | 128° |